createdAt,value
2023-01-06T00:04:57.549Z,3.25
2023-01-06T00:10:19.550Z,5.00
2023-01-06T00:15:41.398Z,1.70
2023-01-06T00:21:03.610Z,4.00
2023-01-06T00:26:25.468Z,1.60
2023-01-06T00:31:47.312Z,1.20
2023-01-06T00:37:09.046Z,2.50
2023-01-06T00:42:30.834Z,2.38
2023-01-06T00:47:52.502Z,1.80
2023-01-06T00:53:14.239Z,1.45
2023-01-06T00:58:35.955Z,1.63
2023-01-06T01:03:57.711Z,1.98
2023-01-06T01:09:23.471Z,0.70
2023-01-06T01:14:53.324Z,2.58
2023-01-06T01:20:15.097Z,3.15
2023-01-06T01:25:36.823Z,1.13
2023-01-06T01:31:03.007Z,1.48
2023-01-06T01:36:24.998Z,1.15
2023-01-06T01:41:47.782Z,0.80
2023-01-06T01:47:12.048Z,1.55
2023-01-06T01:52:35.164Z,1.30
2023-01-06T01:58:04.463Z,1.88
2023-01-06T02:03:26.683Z,2.63
2023-01-06T02:08:57.188Z,1.00
2023-01-06T02:14:23.556Z,1.98
2023-01-06T02:20:16.475Z,2.38
2023-01-06T02:26:15.414Z,1.73
2023-01-06T02:32:15.034Z,1.08
2023-01-06T02:37:39.424Z,1.15
2023-01-06T02:43:13.956Z,1.10
2023-01-06T02:48:55.511Z,0.60
2023-01-06T02:54:32.163Z,1.13
2023-01-06T03:00:02.827Z,0.73
2023-01-06T03:05:27.594Z,0.95
2023-01-06T03:10:51.290Z,0.80
2023-01-06T03:16:14.543Z,0.50
2023-01-06T03:21:40.332Z,0.60
2023-01-06T03:27:03.497Z,0.52
2023-01-06T03:32:29.955Z,1.17
2023-01-06T03:38:39.536Z,1.33
2023-01-06T03:44:19.179Z,0.60
2023-01-06T03:49:54.136Z,0.88
2023-01-06T03:55:20.993Z,0.60
2023-01-06T04:00:43.130Z,0.60
2023-01-06T04:06:05.135Z,0.73
2023-01-06T04:11:45.696Z,0.70
2023-01-06T04:17:07.404Z,0.63
2023-01-06T04:22:29.157Z,1.60
2023-01-06T04:27:50.926Z,0.80
2023-01-06T04:33:12.623Z,0.95
2023-01-06T04:38:34.363Z,0.30
2023-01-06T04:43:58.085Z,0.22
2023-01-06T04:49:20.021Z,0.32
2023-01-06T04:54:41.781Z,0.28
2023-01-06T05:00:04.685Z,0.35
2023-01-06T05:05:26.429Z,0.30
2023-01-06T05:10:48.138Z,0.90
2023-01-06T05:16:17.754Z,1.15
2023-01-06T05:21:40.521Z,0.50
2023-01-06T05:27:02.280Z,0.73
2023-01-06T05:32:24.036Z,0.43
2023-01-06T05:37:45.760Z,0.43
2023-01-06T05:43:08.188Z,0.40
2023-01-06T05:48:29.899Z,1.02
2023-01-06T05:53:51.622Z,0.70
2023-01-06T05:59:13.395Z,1.35
2023-01-06T06:04:35.154Z,2.08
2023-01-06T06:09:56.934Z,0.38
2023-01-06T06:15:19.325Z,0.98
2023-01-06T06:20:41.039Z,0.43
2023-01-06T06:26:02.911Z,0.82
2023-01-06T06:31:28.150Z,0.22
2023-01-06T06:36:49.927Z,0.10
2023-01-06T06:42:11.673Z,0.55
2023-01-06T06:47:33.339Z,0.65
2023-01-06T06:52:55.974Z,0.35
2023-01-06T06:58:18.069Z,0.20
2023-01-06T07:03:40.346Z,1.05
2023-01-06T07:09:02.226Z,0.30
2023-01-06T07:14:23.887Z,0.40
2023-01-06T07:19:45.651Z,0.57
2023-01-06T07:25:09.254Z,0.38
2023-01-06T07:30:31.331Z,0.28
2023-01-06T07:35:55.241Z,0.10
2023-01-06T07:41:16.921Z,0.10
2023-01-06T07:46:38.701Z,2.53
2023-01-06T07:52:00.418Z,3.58
2023-01-06T07:57:22.448Z,2.75
2023-01-06T08:02:44.302Z,1.90
2023-01-06T08:08:06.033Z,1.98
2023-01-06T08:13:27.729Z,4.00
2023-01-06T08:18:49.386Z,2.92
2023-01-06T08:24:11.258Z,4.45
2023-01-06T08:29:32.951Z,3.28
2023-01-06T08:34:54.626Z,5.13
2023-01-06T08:40:16.608Z,1.98
2023-01-06T08:45:39.820Z,3.85
2023-01-06T08:51:07.452Z,1.30
2023-01-06T08:56:31.685Z,5.88
2023-01-06T09:01:53.435Z,0.80
2023-01-06T09:07:15.254Z,4.72
2023-01-06T09:12:36.961Z,1.27
2023-01-06T09:17:58.667Z,0.98
2023-01-06T09:23:22.135Z,2.05
2023-01-06T09:28:44.433Z,2.47
2023-01-06T09:34:06.151Z,6.82
2023-01-06T09:39:28.049Z,12.43
2023-01-06T09:45:06.514Z,3.38
2023-01-06T09:50:50.913Z,7.57
2023-01-06T09:56:17.924Z,11.75
2023-01-06T10:01:47.551Z,9.40
2023-01-06T10:07:23.962Z,5.13
2023-01-06T10:13:25.508Z,3.70
2023-01-06T10:19:01.267Z,2.05
2023-01-06T10:24:37.578Z,3.03
2023-01-06T10:30:01.482Z,3.13
2023-01-06T10:35:26.803Z,7.50
2023-01-06T10:40:48.862Z,8.10
2023-01-06T10:46:10.760Z,11.82
2023-01-06T10:51:41.312Z,11.20
2023-01-06T10:57:06.496Z,10.77
2023-01-06T11:02:29.214Z,14.05
2023-01-06T11:07:57.301Z,17.05
2023-01-06T11:13:27.708Z,16.77
2023-01-06T11:18:56.002Z,10.85
2023-01-06T11:24:24.327Z,10.40
2023-01-06T11:29:46.316Z,6.00
2023-01-06T11:35:19.242Z,19.98
2023-01-06T11:40:44.108Z,15.07
2023-01-06T11:46:09.284Z,8.67
2023-01-06T11:51:45.199Z,15.55
2023-01-06T11:57:28.468Z,8.02
2023-01-06T12:03:15.914Z,16.25
2023-01-06T12:08:55.683Z,18.17
2023-01-06T12:14:28.798Z,9.80
2023-01-06T12:20:02.785Z,8.88
2023-01-06T12:25:24.536Z,7.80
2023-01-06T12:30:51.181Z,10.00
2023-01-06T12:36:50.419Z,11.57
2023-01-06T12:42:33.750Z,8.63
2023-01-06T12:47:58.158Z,4.85
2023-01-06T12:53:35.394Z,6.32
2023-01-06T12:59:15.452Z,10.23
2023-01-06T13:04:55.210Z,11.00
2023-01-06T13:10:30.860Z,6.05
2023-01-06T13:15:55.174Z,6.22
2023-01-06T13:21:23.269Z,3.08
2023-01-06T13:26:53.690Z,4.55
2023-01-06T13:32:21.173Z,6.80
2023-01-06T13:37:51.980Z,7.75
2023-01-06T13:43:27.513Z,7.40
2023-01-06T13:48:53.783Z,7.37
2023-01-06T13:54:40.171Z,7.47
2023-01-06T14:00:04.602Z,4.63
2023-01-06T14:05:28.003Z,1.60
2023-01-06T14:10:58.641Z,12.10
2023-01-06T14:16:21.043Z,4.60
2023-01-06T14:21:43.425Z,7.00
2023-01-06T14:27:08.364Z,1.65
2023-01-06T14:32:30.024Z,6.50
2023-01-06T14:37:58.199Z,7.03
2023-01-06T14:43:34.074Z,2.42
2023-01-06T14:49:01.606Z,2.15
2023-01-06T14:54:30.921Z,2.55
2023-01-06T15:00:13.122Z,1.95
2023-01-06T15:05:37.754Z,2.65
2023-01-06T15:11:12.970Z,2.47
2023-01-06T15:16:45.385Z,6.83
2023-01-06T15:22:08.672Z,2.22
2023-01-06T15:27:31.098Z,1.45
2023-01-06T15:32:54.901Z,2.53
2023-01-06T15:38:22.312Z,4.25
2023-01-06T15:43:47.727Z,2.67
2023-01-06T15:49:35.465Z,9.73
2023-01-06T15:55:00.569Z,12.13
2023-01-06T16:00:25.684Z,3.78
2023-01-06T16:05:51.124Z,5.55
2023-01-06T16:11:18.041Z,7.53
2023-01-06T16:16:40.454Z,6.80
2023-01-06T16:22:08.451Z,5.72
2023-01-06T16:27:30.368Z,10.57
2023-01-06T16:32:56.702Z,9.55
2023-01-06T16:38:18.427Z,8.77
2023-01-06T16:43:40.099Z,4.60
2023-01-06T16:49:08.875Z,5.18
2023-01-06T16:54:30.851Z,17.35
2023-01-06T16:59:52.575Z,12.20
2023-01-06T17:05:19.936Z,8.52
2023-01-06T17:10:43.113Z,3.70
2023-01-06T17:16:10.797Z,11.63
2023-01-06T17:21:40.014Z,11.35
2023-01-06T17:27:07.708Z,6.60
2023-01-06T17:32:37.642Z,5.65
2023-01-06T17:38:02.728Z,2.60
2023-01-06T17:43:31.453Z,5.90
2023-01-06T17:49:08.956Z,4.68
2023-01-06T17:54:50.327Z,6.97
2023-01-06T18:00:22.177Z,9.32
2023-01-06T18:05:48.898Z,10.20
2023-01-06T18:11:10.587Z,11.02
2023-01-06T18:16:35.470Z,7.68
2023-01-06T18:21:58.017Z,6.10
2023-01-06T18:27:24.334Z,6.68
2023-01-06T18:32:46.470Z,7.80
2023-01-06T18:38:08.578Z,4.47
2023-01-06T18:43:30.332Z,7.95
2023-01-06T18:48:54.861Z,11.25
2023-01-06T18:54:19.671Z,12.80
2023-01-06T18:59:41.370Z,10.07
2023-01-06T19:05:10.653Z,9.90
2023-01-06T19:10:32.357Z,4.05
2023-01-06T19:16:01.631Z,8.52
2023-01-06T19:21:23.821Z,5.25
2023-01-06T19:26:45.759Z,7.80
2023-01-06T19:32:14.084Z,6.53
2023-01-06T19:37:35.783Z,13.10
2023-01-06T19:43:19.266Z,11.50
2023-01-06T19:48:41.901Z,13.98
2023-01-06T19:54:12.792Z,8.75
2023-01-06T19:59:35.953Z,5.35
2023-01-06T20:04:57.732Z,5.18
2023-01-06T20:10:20.872Z,4.57
2023-01-06T20:15:42.708Z,14.48
2023-01-06T20:21:04.943Z,30.80
2023-01-06T20:26:26.786Z,31.58
2023-01-06T20:31:48.566Z,33.17
2023-01-06T20:37:10.295Z,19.23
2023-01-06T20:42:32.042Z,29.15
2023-01-06T20:47:53.779Z,23.75
2023-01-06T20:53:15.565Z,23.02
2023-01-06T20:58:37.274Z,17.38
2023-01-06T21:03:59.577Z,10.98
2023-01-06T21:09:21.368Z,17.20
2023-01-06T21:14:43.083Z,12.13
2023-01-06T21:20:06.455Z,10.32
2023-01-06T21:25:28.187Z,14.80
2023-01-06T21:30:49.937Z,15.13
2023-01-06T21:36:11.658Z,14.50
2023-01-06T21:41:52.156Z,6.15
2023-01-06T21:47:15.853Z,11.35
2023-01-06T21:52:37.980Z,4.88
2023-01-06T21:57:59.911Z,16.83
2023-01-06T22:03:21.696Z,10.63
2023-01-06T22:08:43.475Z,9.57
2023-01-06T22:14:06.104Z,9.45
2023-01-06T22:19:29.714Z,5.47
2023-01-06T22:24:54.405Z,6.38
2023-01-06T22:30:16.141Z,10.27
2023-01-06T22:35:37.836Z,12.05
2023-01-06T22:40:59.703Z,11.68
2023-01-06T22:46:21.610Z,6.28
2023-01-06T22:51:43.954Z,6.35
2023-01-06T22:57:05.737Z,3.42
2023-01-06T23:02:27.592Z,4.75
2023-01-06T23:07:49.436Z,5.05
2023-01-06T23:13:11.204Z,7.05
2023-01-06T23:18:35.590Z,4.22
2023-01-06T23:23:57.421Z,3.80
2023-01-06T23:29:19.254Z,5.53
2023-01-06T23:34:40.941Z,2.80
2023-01-06T23:40:02.663Z,3.40
2023-01-06T23:45:24.409Z,3.92
2023-01-06T23:50:50.895Z,2.80
2023-01-06T23:56:23.805Z,2.63
